GRZ549 Details

Departure: Petersburg James A Johnson Airport (PAPG)
Arrival: Juneau International Airport (PAJN)
Route: GORBY4 ODECO R1050 STVNS


Current Weather Information
PAPG 260103Z 00000KT 10SM -RA BKN024 BKN034 OVC055 07/03 A3020 RMK AO2 P0000
PAJN 260053Z 14009KT 10SM -RA FEW016 BKN034 OVC043 05/02 A3018 RMK AO2 RAB18 SLP218 P0000 T00500022